Time;durP1;ratioP1;P1;durP2;ratioP2;P2;SDS_P1;SDS_P2;PMS_P1;PMS_P2;Temp;Humidity;BMP_temperature;BMP_pressure;BME280_temperature;BME280_humidity;BME280_pressure;Samples;Min_cycle;Max_cycle;Signal;HPM_P1;HPM_P2
2021/12/30 00:01:46;;;;;;;0.85;0.85;;;12.70;89.70;;;;;;4996942;28;20026;-68
2021/12/30 00:04:11;;;;;;;0.73;0.70;;;12.70;89.60;;;;;;5000048;28;20404;-67
2021/12/30 00:06:41;;;;;;;0.70;0.70;;;12.70;89.70;;;;;;5000976;28;20034;-68
2021/12/30 00:09:09;;;;;;;1.17;0.70;;;12.70;89.60;;;;;;4999767;28;20066;-67
2021/12/30 00:11:35;;;;;;;1.15;0.70;;;12.70;89.60;;;;;;5000008;28;20405;-68
2021/12/30 00:14:01;;;;;;;0.50;0.50;;;12.70;89.60;;;;;;4996443;28;20029;-67
2021/12/30 00:16:27;;;;;;;0.68;0.68;;;12.80;89.70;;;;;;5001281;28;20523;-68
2021/12/30 00:18:52;;;;;;;0.50;0.50;;;12.80;89.70;;;;;;5004785;28;20034;-68
2021/12/30 00:21:20;;;;;;;0.40;0.40;;;12.80;89.70;;;;;;5004171;28;20030;-68
2021/12/30 00:23:46;;;;;;;0.60;0.60;;;12.80;89.70;;;;;;5000554;28;20034;-68
2021/12/30 00:26:12;;;;;;;0.40;0.40;;;12.80;89.70;;;;;;5003753;28;20038;-68
2021/12/30 00:28:39;;;;;;;0.47;0.47;;;12.80;89.80;;;;;;5000761;28;20053;-67
2021/12/30 00:31:05;;;;;;;0.40;0.40;;;12.90;89.90;;;;;;4997300;28;20501;-68
2021/12/30 00:33:34;;;;;;;0.52;0.52;;;12.80;89.90;;;;;;5004399;28;20045;-68
2021/12/30 00:36:06;;;;;;;0.40;0.40;;;12.90;90.30;;;;;;5006273;28;20125;-68
2021/12/30 00:38:35;;;;;;;0.40;0.40;;;12.90;89.90;;;;;;4999974;28;20042;-68
2021/12/30 00:41:01;;;;;;;0.30;0.30;;;12.90;89.90;;;;;;4999954;28;20048;-68
2021/12/30 00:43:27;;;;;;;0.40;0.40;;;12.90;89.90;;;;;;5006009;28;20513;-68
2021/12/30 00:45:53;;;;;;;0.77;0.45;;;13.00;90.00;;;;;;4997424;28;20104;-68
2021/12/30 00:48:18;;;;;;;0.30;0.30;;;13.00;89.90;;;;;;5002909;28;20042;-68
2021/12/30 00:50:46;;;;;;;0.40;0.40;;;13.00;89.90;;;;;;5000615;28;20102;-68
2021/12/30 00:53:11;;;;;;;0.50;0.50;;;13.00;89.90;;;;;;5000506;28;20117;-68
2021/12/30 00:55:39;;;;;;;0.50;0.50;;;13.00;89.80;;;;;;5003415;28;20121;-68
2021/12/30 00:58:06;;;;;;;0.55;0.55;;;13.10;89.90;;;;;;5005363;28;20252;-68
2021/12/30 01:00:33;;;;;;;0.47;0.47;;;13.10;89.90;;;;;;4997436;28;20131;-67
2021/12/30 01:02:58;;;;;;;0.88;0.50;;;13.10;89.80;;;;;;5003392;28;20535;-69
2021/12/30 01:05:24;;;;;;;0.40;0.40;;;13.10;89.70;;;;;;5003675;28;20049;-68
2021/12/30 01:07:50;;;;;;;0.60;0.60;;;13.20;89.90;;;;;;5001909;28;20034;-68
2021/12/30 01:10:20;;;;;;;1.15;0.45;;;13.10;89.80;;;;;;5003423;28;20038;-68
2021/12/30 01:12:46;;;;;;;0.50;0.50;;;13.20;89.90;;;;;;4997288;28;20048;-68
2021/12/30 01:15:14;;;;;;;0.30;0.30;;;13.20;89.80;;;;;;5002871;28;20030;-69
2021/12/30 01:20:11;;;;;;;0.40;0.40;;;13.20;89.70;;;;;;5000429;28;20038;-68
2021/12/30 01:22:37;;;;;;;0.52;0.52;;;13.20;89.80;;;;;;4999718;28;20147;-67
2021/12/30 01:25:04;;;;;;;0.70;0.50;;;13.30;89.90;;;;;;5006383;28;20509;-68
2021/12/30 01:27:30;;;;;;;0.30;0.30;;;13.30;90.00;;;;;;5002273;28;20058;-68
2021/12/30 01:29:56;;;;;;;0.50;0.30;;;13.30;89.90;;;;;;5005315;28;20112;-68
2021/12/30 01:32:22;;;;;;;0.57;0.28;;;13.30;89.80;;;;;;5001229;28;20034;-68
2021/12/30 01:34:48;;;;;;;0.30;0.30;;;13.30;89.90;;;;;;5003922;28;20049;-68
2021/12/30 01:37:18;;;;;;;0.30;0.30;;;13.40;89.90;;;;;;4998204;28;20409;-67
2021/12/30 01:39:44;;;;;;;0.10;0.10;;;13.30;89.70;;;;;;5003598;28;20065;-68
2021/12/30 01:42:11;;;;;;;1.38;0.22;;;13.40;89.70;;;;;;4997997;28;20072;-68
2021/12/30 01:44:37;;;;;;;0.10;0.10;;;13.40;89.70;;;;;;5003394;28;21751;-68
2021/12/30 01:47:04;;;;;;;0.20;0.20;;;13.40;89.60;;;;;;5000638;28;20022;-68
2021/12/30 01:49:30;;;;;;;0.10;0.10;;;13.40;89.60;;;;;;4999476;28;20081;-68
2021/12/30 01:51:56;;;;;;;0.10;0.10;;;13.40;89.50;;;;;;5002334;28;20448;-68
2021/12/30 01:54:23;;;;;;;0.25;0.25;;;13.50;89.60;;;;;;5002042;28;20592;-68
2021/12/30 01:56:51;;;;;;;0.77;0.30;;;13.50;89.80;;;;;;4995855;28;20042;-69
2021/12/30 01:59:19;;;;;;;0.20;0.20;;;13.50;90.00;;;;;;4994956;28;20397;-68
2021/12/30 02:01:45;;;;;;;0.10;0.10;;;13.50;89.80;;;;;;4997684;28;20040;-67
2021/12/30 02:04:11;;;;;;;0.13;0.10;;;13.50;89.60;;;;;;5006308;28;20033;-68
2021/12/30 02:06:37;;;;;;;0.30;0.20;;;13.50;89.40;;;;;;4998866;28;20060;-68
2021/12/30 02:09:03;;;;;;;1.85;0.15;;;13.50;89.20;;;;;;5002071;28;20485;-68
2021/12/30 02:11:29;;;;;;;0.90;0.30;;;13.50;89.20;;;;;;4993859;28;20183;-68
2021/12/30 02:13:56;;;;;;;0.40;0.30;;;13.60;89.10;;;;;;5000166;28;20049;-68
2021/12/30 02:16:23;;;;;;;0.40;0.13;;;13.50;88.90;;;;;;4997378;28;20926;-68
2021/12/30 02:18:49;;;;;;;0.10;0.10;;;13.50;88.80;;;;;;4998344;28;20075;-67
2021/12/30 02:21:15;;;;;;;0.28;0.20;;;13.50;88.60;;;;;;5000103;28;20065;-68
2021/12/30 02:23:41;;;;;;;0.20;0.20;;;13.60;88.60;;;;;;5002513;28;20064;-67
2021/12/30 02:26:13;;;;;;;0.47;0.13;;;13.50;88.50;;;;;;4997946;28;20123;-68
2021/12/30 02:28:39;;;;;;;0.13;0.10;;;13.50;88.30;;;;;;4995809;28;20080;-68
2021/12/30 02:31:28;;;;;;;0.10;0.10;;;13.50;88.30;;;;;;5003334;28;20046;-68
2021/12/30 02:33:56;;;;;;;0.30;0.10;;;13.50;88.30;;;;;;5001560;28;20046;-68
2021/12/30 02:36:31;;;;;;;0.28;0.20;;;13.50;88.30;;;;;;4998160;28;20703;-68
2021/12/30 02:38:58;;;;;;;0.30;0.20;;;13.50;88.20;;;;;;5004751;28;20438;-68
2021/12/30 02:41:26;;;;;;;0.10;0.10;;;13.50;88.10;;;;;;5004096;28;20045;-68
2021/12/30 02:43:52;;;;;;;0.20;0.10;;;13.50;88.00;;;;;;5000013;28;20034;-68
2021/12/30 02:46:23;;;;;;;0.20;0.20;;;13.50;88.00;;;;;;4999111;28;20049;-68
2021/12/30 02:48:52;;;;;;;0.10;0.10;;;13.50;88.00;;;;;;4995086;28;20068;-67
2021/12/30 02:51:20;;;;;;;0.22;0.10;;;13.50;87.80;;;;;;5000704;28;20042;-68
2021/12/30 02:53:46;;;;;;;0.10;0.10;;;13.50;87.70;;;;;;5005785;28;20063;-68
2021/12/30 02:56:12;;;;;;;0.10;0.10;;;13.50;87.60;;;;;;5001617;28;20572;-67
2021/12/30 02:58:37;;;;;;;0.03;0.03;;;13.50;87.60;;;;;;5000795;28;20038;-67
2021/12/30 03:01:13;;;;;;;0.20;0.03;;;13.50;87.60;;;;;;5001618;28;20386;-68
2021/12/30 03:03:39;;;;;;;0.00;0.00;;;13.50;87.40;;;;;;4996780;28;20089;-68
2021/12/30 03:06:07;;;;;;;0.20;0.10;;;13.50;87.40;;;;;;5001840;28;20558;-67
2021/12/30 03:08:33;;;;;;;0.70;0.00;;;13.50;87.40;;;;;;5002340;28;20041;-68
2021/12/30 03:10:59;;;;;;;0.00;0.00;;;13.50;87.40;;;;;;4996637;28;20034;-68
2021/12/30 03:13:30;;;;;;;0.10;0.00;;;13.50;87.30;;;;;;4997009;28;20042;-68
2021/12/30 03:16:08;;;;;;;0.03;0.00;;;13.50;87.30;;;;;;4995013;28;20125;-68
2021/12/30 03:18:36;;;;;;;0.10;0.00;;;13.40;87.30;;;;;;4995976;28;20128;-66
2021/12/30 03:21:03;;;;;;;0.20;0.10;;;13.40;87.40;;;;;;5000495;28;20476;-68
2021/12/30 03:23:29;;;;;;;2.50;0.10;;;13.40;87.40;;;;;;4997056;28;20033;-68
2021/12/30 03:25:55;;;;;;;0.30;0.10;;;13.40;88.30;;;;;;4998250;28;20060;-67
2021/12/30 03:28:20;;;;;;;0.15;0.00;;;13.40;87.60;;;;;;5001098;28;20720;-66
2021/12/30 03:30:47;;;;;;;0.10;0.10;;;13.40;87.70;;;;;;4996291;28;20045;-68
2021/12/30 03:33:13;;;;;;;0.00;0.00;;;13.40;87.80;;;;;;5004093;28;20034;-68
2021/12/30 03:35:38;;;;;;;0.10;0.00;;;13.40;88.00;;;;;;5001336;28;20662;-68
2021/12/30 03:38:05;;;;;;;0.68;0.10;;;13.40;88.00;;;;;;4999005;28;20046;-68
2021/12/30 03:40:34;;;;;;;0.20;0.00;;;13.40;88.00;;;;;;5002244;28;20041;-68
2021/12/30 03:43:00;;;;;;;0.00;0.00;;;13.40;88.10;;;;;;5004219;28;20553;-67
2021/12/30 03:45:25;;;;;;;0.10;0.10;;;13.40;88.10;;;;;;5004362;28;20053;-67
2021/12/30 03:47:52;;;;;;;0.40;0.10;;;13.40;88.10;;;;;;5005397;28;20046;-68
2021/12/30 03:50:24;;;;;;;0.10;0.10;;;13.40;88.20;;;;;;5002072;28;20497;-68
2021/12/30 03:52:52;;;;;;;1.05;0.10;;;13.40;89.20;;;;;;5004669;28;20095;-67
2021/12/30 03:55:20;;;;;;;0.15;0.10;;;13.40;88.30;;;;;;5003418;28;20056;-68
2021/12/30 03:57:46;;;;;;;0.32;0.10;;;13.40;88.20;;;;;;5001290;28;21002;-68
2021/12/30 04:00:13;;;;;;;1.02;0.10;;;13.40;88.20;;;;;;5012283;28;20465;-69
2021/12/30 04:02:39;;;;;;;0.32;0.10;;;13.40;88.10;;;;;;5000715;28;20479;-68
2021/12/30 04:05:06;;;;;;;0.35;0.05;;;13.50;88.10;;;;;;5001285;28;20045;-68
2021/12/30 04:07:31;;;;;;;0.40;0.00;;;13.50;88.10;;;;;;4999740;28;20122;-68
2021/12/30 04:09:57;;;;;;;12.20;6.97;;;13.40;88.00;;;;;;4999297;28;20121;-68
2021/12/30 04:12:23;;;;;;;15.45;11.25;;;13.50;88.00;;;;;;4995285;28;20038;-68
2021/12/30 04:14:48;;;;;;;5.88;5.05;;;13.50;87.90;;;;;;5001502;28;20045;-68
2021/12/30 04:17:14;;;;;;;1.45;1.35;;;13.50;87.90;;;;;;4995245;28;20041;-68
2021/12/30 04:19:39;;;;;;;0.50;0.40;;;13.50;87.80;;;;;;5004826;28;20038;-68
2021/12/30 04:22:05;;;;;;;0.25;0.25;;;13.50;87.80;;;;;;5000462;28;20038;-68
2021/12/30 04:24:31;;;;;;;0.30;0.30;;;13.50;87.80;;;;;;4998279;28;20042;-68
2021/12/30 04:26:56;;;;;;;0.10;0.10;;;13.50;87.70;;;;;;5001147;28;20037;-68
2021/12/30 04:29:22;;;;;;;0.20;0.20;;;13.50;87.70;;;;;;5003062;28;20038;-68
2021/12/30 04:31:48;;;;;;;0.30;0.30;;;13.50;87.80;;;;;;5002774;28;20038;-68
2021/12/30 04:34:14;;;;;;;0.20;0.20;;;13.50;87.80;;;;;;5006862;28;20034;-68
2021/12/30 04:36:40;;;;;;;0.10;0.10;;;13.50;87.80;;;;;;4999579;28;20022;-68
2021/12/30 04:39:07;;;;;;;0.22;0.20;;;13.50;87.90;;;;;;5002003;28;20662;-67
2021/12/30 04:41:32;;;;;;;1.25;0.10;;;13.50;87.90;;;;;;5003645;28;20963;-67
2021/12/30 04:43:58;;;;;;;1.50;0.10;;;13.50;87.90;;;;;;5002920;28;20030;-68
2021/12/30 04:46:24;;;;;;;0.13;0.10;;;13.50;87.90;;;;;;4999824;28;20046;-68
2021/12/30 04:48:50;;;;;;;0.10;0.10;;;13.50;87.90;;;;;;5000139;28;20033;-67
2021/12/30 04:51:16;;;;;;;0.10;0.10;;;13.50;87.90;;;;;;5004900;28;20033;-68
2021/12/30 04:53:43;;;;;;;0.10;0.10;;;13.50;88.00;;;;;;4997715;28;20042;-68
2021/12/30 04:56:09;;;;;;;0.20;0.20;;;13.50;88.00;;;;;;5005540;28;20148;-69
2021/12/30 04:58:35;;;;;;;0.10;0.10;;;13.50;88.00;;;;;;5007580;28;20183;-65
2021/12/30 05:01:01;;;;;;;0.52;0.20;;;13.50;88.00;;;;;;5002911;28;20505;-68
2021/12/30 05:03:27;;;;;;;0.22;0.20;;;13.50;88.00;;;;;;4998299;28;20038;-68
2021/12/30 05:05:53;;;;;;;0.63;0.20;;;13.50;88.00;;;;;;5002296;28;20117;-69
2021/12/30 05:08:22;;;;;;;0.10;0.10;;;13.50;88.00;;;;;;5001289;28;20109;-68
2021/12/30 05:10:48;;;;;;;0.10;0.10;;;13.50;88.20;;;;;;4996139;28;20049;-68
2021/12/30 05:13:15;;;;;;;0.38;0.20;;;13.50;88.10;;;;;;4997595;28;20030;-67
2021/12/30 05:15:41;;;;;;;1.15;0.20;;;13.50;88.10;;;;;;4998203;28;20541;-69
2021/12/30 05:18:12;;;;;;;0.73;0.17;;;13.50;88.10;;;;;;4999923;28;20472;-68
2021/12/30 05:20:39;;;;;;;0.17;0.17;;;13.50;88.20;;;;;;5000967;28;20124;-68
2021/12/30 05:23:07;;;;;;;0.20;0.17;;;13.50;88.30;;;;;;5001622;28;20731;-68
2021/12/30 05:25:32;;;;;;;0.10;0.10;;;13.50;88.20;;;;;;5002890;28;20038;-69
2021/12/30 05:27:59;;;;;;;0.10;0.10;;;13.50;88.30;;;;;;5002826;28;20045;-69
2021/12/30 05:30:25;;;;;;;0.20;0.20;;;13.50;88.30;;;;;;5004839;28;20723;-68
2021/12/30 05:32:52;;;;;;;1.55;0.60;;;13.50;88.30;;;;;;5004105;28;20048;-69
2021/12/30 05:35:19;;;;;;;0.30;0.30;;;13.50;88.40;;;;;;4995603;28;20513;-69
2021/12/30 05:37:45;;;;;;;0.20;0.20;;;13.50;88.40;;;;;;4999477;28;20130;-70
2021/12/30 05:40:20;;;;;;;0.28;0.28;;;13.50;88.50;;;;;;4998526;28;20534;-69
2021/12/30 05:42:46;;;;;;;0.22;0.22;;;13.50;88.60;;;;;;5001923;28;20038;-68
2021/12/30 05:45:16;;;;;;;0.30;0.30;;;13.60;88.60;;;;;;4997188;28;20034;-68
2021/12/30 05:47:46;;;;;;;0.50;0.50;;;13.50;88.50;;;;;;5005883;28;20038;-69
2021/12/30 05:50:13;;;;;;;0.80;0.80;;;13.50;88.60;;;;;;5001798;28;20046;-68
2021/12/30 05:52:39;;;;;;;0.63;0.63;;;13.50;88.60;;;;;;4999373;28;20034;-68
2021/12/30 05:55:06;;;;;;;0.40;0.40;;;13.50;88.70;;;;;;5004596;28;20033;-67
2021/12/30 05:57:31;;;;;;;0.50;0.50;;;13.50;88.80;;;;;;4999691;28;20034;-68
2021/12/30 05:59:57;;;;;;;0.20;0.20;;;13.50;88.80;;;;;;5005345;28;20540;-68
2021/12/30 06:02:23;;;;;;;0.20;0.20;;;13.50;88.80;;;;;;5004811;28;20041;-68
2021/12/30 06:04:49;;;;;;;0.10;0.10;;;13.50;88.90;;;;;;4999933;28;20053;-68
2021/12/30 06:07:15;;;;;;;0.20;0.20;;;13.60;88.80;;;;;;4998493;28;20041;-68
2021/12/30 06:09:41;;;;;;;0.15;0.15;;;13.60;88.80;;;;;;4998484;28;20042;-69
2021/12/30 06:12:08;;;;;;;0.60;0.40;;;13.60;88.90;;;;;;4992939;28;20505;-68
2021/12/30 06:14:34;;;;;;;0.10;0.10;;;13.60;88.90;;;;;;5003935;28;20070;-68
2021/12/30 06:16:59;;;;;;;0.95;0.25;;;13.60;88.90;;;;;;5000127;28;20062;-69
2021/12/30 06:19:25;;;;;;;0.20;0.20;;;13.60;88.90;;;;;;5003363;28;20049;-69
2021/12/30 06:21:50;;;;;;;0.20;0.20;;;13.60;88.90;;;;;;5001538;28;20120;-69
2021/12/30 06:24:16;;;;;;;0.28;0.28;;;13.60;89.00;;;;;;5003447;28;20041;-68
2021/12/30 06:26:42;;;;;;;1.17;0.50;;;13.60;88.90;;;;;;4998178;28;20042;-68
2021/12/30 06:29:08;;;;;;;0.20;0.20;;;13.60;88.90;;;;;;5002019;28;20472;-68
2021/12/30 06:31:33;;;;;;;0.30;0.30;;;13.60;88.80;;;;;;4997571;28;20045;-68
2021/12/30 06:33:59;;;;;;;0.17;0.17;;;13.70;88.90;;;;;;4997062;28;20030;-68
2021/12/30 06:36:24;;;;;;;0.20;0.20;;;13.70;88.80;;;;;;4992491;28;22039;-68
2021/12/30 06:38:50;;;;;;;0.22;0.20;;;13.70;88.80;;;;;;4998694;28;20045;-68
2021/12/30 06:41:16;;;;;;;0.30;0.30;;;13.70;88.80;;;;;;4996763;28;20420;-68
2021/12/30 06:43:42;;;;;;;0.30;0.30;;;13.60;88.60;;;;;;4992777;28;20493;-68
2021/12/30 06:46:10;;;;;;;0.20;0.20;;;13.70;88.60;;;;;;4990844;28;20038;-67
2021/12/30 06:48:36;;;;;;;0.60;0.20;;;13.70;88.60;;;;;;4995320;28;20437;-66
2021/12/30 06:51:04;;;;;;;0.55;0.20;;;13.70;88.60;;;;;;4993410;28;20441;-69
2021/12/30 06:53:30;;;;;;;0.20;0.20;;;13.70;88.60;;;;;;4993472;28;20121;-68
2021/12/30 06:55:56;;;;;;;0.38;0.30;;;13.70;88.50;;;;;;5001881;28;20038;-68
2021/12/30 06:58:22;;;;;;;0.43;0.20;;;13.70;88.50;;;;;;4993025;28;20045;-68
2021/12/30 07:00:51;;;;;;;0.28;0.28;;;13.70;88.40;;;;;;4993461;28;20539;-69
2021/12/30 07:03:17;;;;;;;0.28;0.28;;;13.70;88.40;;;;;;4992812;28;20038;-68
2021/12/30 07:05:44;;;;;;;0.88;0.35;;;13.70;88.50;;;;;;4995660;28;20080;-69
2021/12/30 07:08:10;;;;;;;0.30;0.20;;;13.70;88.30;;;;;;4993059;28;20140;-68
2021/12/30 07:10:36;;;;;;;0.40;0.40;;;13.70;88.20;;;;;;4991481;28;20491;-67
2021/12/30 07:13:01;;;;;;;0.30;0.30;;;13.80;88.20;;;;;;4995661;28;20030;-68
2021/12/30 07:15:27;;;;;;;0.52;0.40;;;13.80;88.20;;;;;;4999889;28;20542;-66
2021/12/30 07:17:53;;;;;;;1.55;0.32;;;13.70;88.10;;;;;;4998969;28;20034;-68
2021/12/30 07:20:18;;;;;;;0.50;0.30;;;13.80;88.20;;;;;;4998350;28;20069;-68
2021/12/30 07:22:44;;;;;;;0.30;0.30;;;13.80;88.10;;;;;;4997043;28;20421;-68
2021/12/30 07:25:16;;;;;;;0.40;0.30;;;13.80;88.20;;;;;;5002112;28;20124;-69
2021/12/30 07:27:43;;;;;;;1.70;1.60;;;13.80;88.10;;;;;;5001493;28;20030;-69
2021/12/30 07:30:10;;;;;;;3.80;0.60;;;13.80;88.10;;;;;;4996482;28;20045;-68
2021/12/30 07:32:35;;;;;;;1.15;1.08;;;13.80;88.10;;;;;;4997079;28;20045;-68
2021/12/30 07:35:02;;;;;;;3.03;2.83;;;13.80;88.00;;;;;;5003940;28;20037;-69
2021/12/30 07:37:27;;;;;;;3.95;3.42;;;13.80;88.10;;;;;;4999773;28;20037;-68
2021/12/30 07:39:53;;;;;;;2.40;1.98;;;13.80;88.10;;;;;;4993961;28;20038;-68
2021/12/30 07:42:19;;;;;;;0.55;0.50;;;13.80;88.00;;;;;;5001082;28;20038;-68
2021/12/30 07:44:44;;;;;;;0.70;0.70;;;13.80;88.10;;;;;;5003448;28;20049;-68
2021/12/30 07:47:10;;;;;;;0.73;0.45;;;13.80;88.00;;;;;;5003337;28;20042;-68
2021/12/30 07:49:36;;;;;;;0.50;0.50;;;13.80;88.00;;;;;;4994689;28;20493;-66
2021/12/30 07:52:06;;;;;;;0.30;0.30;;;13.80;88.00;;;;;;4997225;28;20041;-67
2021/12/30 07:54:32;;;;;;;0.77;0.30;;;13.80;88.00;;;;;;4992629;28;20161;-69
2021/12/30 07:56:58;;;;;;;0.60;0.50;;;13.80;88.00;;;;;;4983150;28;20568;-65
2021/12/30 07:59:24;;;;;;;1.10;0.60;;;13.80;88.10;;;;;;4986420;28;20048;-70
2021/12/30 08:01:49;;;;;;;0.80;0.40;;;13.80;88.90;;;;;;4985626;28;20054;-68
2021/12/30 08:04:15;;;;;;;0.32;0.30;;;13.80;88.10;;;;;;4990071;28;21082;-68
2021/12/30 08:06:41;;;;;;;0.82;0.30;;;13.80;88.10;;;;;;4996141;28;20108;-69
2021/12/30 08:09:06;;;;;;;0.60;0.60;;;13.80;88.10;;;;;;5001146;28;20634;-67
2021/12/30 08:11:33;;;;;;;0.32;0.32;;;13.80;88.00;;;;;;4993824;28;20042;-68
2021/12/30 08:13:59;;;;;;;0.38;0.38;;;13.80;88.10;;;;;;4998099;28;20603;-68
2021/12/30 08:16:26;;;;;;;0.60;0.60;;;13.80;88.00;;;;;;5002249;28;20120;-67
2021/12/30 08:18:52;;;;;;;0.85;0.85;;;13.80;88.10;;;;;;4996884;28;20116;-68
2021/12/30 08:21:19;;;;;;;0.30;0.30;;;13.80;88.10;;;;;;4998319;28;20034;-68
2021/12/30 08:23:45;;;;;;;1.58;0.47;;;13.80;88.10;;;;;;5003748;28;20405;-68
2021/12/30 08:26:11;;;;;;;0.40;0.40;;;13.80;88.10;;;;;;4996999;28;20088;-68
2021/12/30 08:28:37;;;;;;;0.93;0.80;;;13.80;88.10;;;;;;4996195;28;20033;-69
2021/12/30 08:31:03;;;;;;;1.10;1.00;;;13.90;88.20;;;;;;4996683;28;20038;-68
2021/12/30 08:33:29;;;;;;;2.70;0.80;;;13.90;88.10;;;;;;5002828;28;20103;-68
2021/12/30 08:35:54;;;;;;;0.75;0.60;;;13.90;88.10;;;;;;4998854;28;20096;-69
2021/12/30 08:38:20;;;;;;;0.90;0.47;;;13.90;88.20;;;;;;4995289;28;20084;-68
2021/12/30 08:40:47;;;;;;;1.10;0.47;;;13.90;88.10;;;;;;4999819;28;20053;-68
2021/12/30 08:43:14;;;;;;;3.03;0.50;;;13.90;89.00;;;;;;4996591;28;20036;-69
2021/12/30 08:45:40;;;;;;;0.57;0.40;;;13.90;88.20;;;;;;4999119;28;20135;-66
2021/12/30 08:48:07;;;;;;;0.40;0.20;;;13.90;88.20;;;;;;5000844;28;20108;-69
2021/12/30 08:50:33;;;;;;;4.80;0.65;;;13.90;88.30;;;;;;4995486;28;20572;-68
2021/12/30 08:52:59;;;;;;;2.85;2.28;;;14.00;88.30;;;;;;5002879;28;20065;-68
2021/12/30 08:55:24;;;;;;;2.20;2.00;;;14.00;88.30;;;;;;5000965;28;20036;-68
2021/12/30 08:57:50;;;;;;;2.45;1.88;;;14.00;88.30;;;;;;4997196;28;20038;-69
2021/12/30 09:00:29;;;;;;;0.80;0.80;;;14.00;88.40;;;;;;4992688;28;20042;-68
2021/12/30 09:02:56;;;;;;;0.93;0.70;;;14.00;88.40;;;;;;4996697;28;20042;-68
2021/12/30 09:05:23;;;;;;;1.23;0.80;;;14.00;88.30;;;;;;5004581;28;20042;-68
2021/12/30 09:07:50;;;;;;;0.43;0.35;;;14.10;88.30;;;;;;5003204;28;20045;-68
2021/12/30 09:10:18;;;;;;;0.30;0.30;;;14.10;88.20;;;;;;5003608;28;20061;-68
2021/12/30 09:12:45;;;;;;;0.38;0.20;;;14.10;88.10;;;;;;4997647;28;20044;-68
2021/12/30 09:15:16;;;;;;;0.30;0.30;;;14.10;88.10;;;;;;5004808;28;20153;-67
2021/12/30 09:17:44;;;;;;;0.40;0.40;;;14.10;88.10;;;;;;5004013;28;20050;-67
2021/12/30 09:20:10;;;;;;;1.10;1.00;;;14.20;88.10;;;;;;5005845;28;20038;-68
2021/12/30 09:22:37;;;;;;;0.50;0.47;;;14.20;88.10;;;;;;5003184;28;20045;-68
2021/12/30 09:25:07;;;;;;;0.82;0.50;;;14.20;88.10;;;;;;5004409;28;20038;-68
2021/12/30 09:27:34;;;;;;;1.15;0.47;;;14.20;88.00;;;;;;5003476;28;20146;-68
2021/12/30 09:29:59;;;;;;;0.28;0.28;;;14.20;88.00;;;;;;5004483;28;20100;-68
2021/12/30 09:32:25;;;;;;;0.38;0.30;;;14.30;88.00;;;;;;5001246;28;20034;-67
2021/12/30 09:34:51;;;;;;;1.83;0.50;;;14.30;88.00;;;;;;5001857;28;20042;-69
2021/12/30 09:37:17;;;;;;;0.70;0.65;;;14.30;88.00;;;;;;4998660;28;20034;-67
2021/12/30 09:39:42;;;;;;;2.40;2.20;;;14.30;87.90;;;;;;5003705;28;20034;-67
2021/12/30 09:42:08;;;;;;;1.30;1.20;;;14.30;87.90;;;;;;5003941;28;20041;-68
2021/12/30 09:44:34;;;;;;;0.90;0.50;;;14.40;88.00;;;;;;5004004;28;20402;-68
2021/12/30 09:47:01;;;;;;;0.80;0.60;;;14.40;88.00;;;;;;5001853;28;20030;-68
2021/12/30 09:49:28;;;;;;;0.50;0.50;;;14.40;88.10;;;;;;5004204;28;20034;-69
2021/12/30 09:51:53;;;;;;;0.65;0.65;;;14.50;88.10;;;;;;5003276;28;20117;-68
2021/12/30 09:54:20;;;;;;;0.45;0.30;;;14.50;88.00;;;;;;5001042;28;20137;-69
2021/12/30 09:56:46;;;;;;;0.50;0.50;;;14.60;87.90;;;;;;5000028;28;20096;-68
2021/12/30 09:59:12;;;;;;;0.50;0.50;;;14.60;87.80;;;;;;5002834;28;20033;-68
2021/12/30 10:01:41;;;;;;;0.80;0.80;;;14.70;87.60;;;;;;5003843;28;20038;-68
2021/12/30 10:04:09;;;;;;;0.70;0.70;;;14.70;87.40;;;;;;5003309;28;20732;-67
2021/12/30 10:06:48;;;;;;;0.38;0.38;;;14.70;87.40;;;;;;5003342;28;20133;-68
2021/12/30 10:09:16;;;;;;;2.85;2.58;;;14.80;87.40;;;;;;5002101;28;20026;-68
2021/12/30 10:11:53;;;;;;;0.82;0.82;;;14.80;87.40;;;;;;4999269;28;20113;-68
2021/12/30 10:14:29;;;;;;;0.30;0.30;;;14.90;86.90;;;;;;5003522;28;20121;-68
2021/12/30 10:17:13;;;;;;;0.20;0.20;;;14.90;86.60;;;;;;5002276;28;20063;-68
2021/12/30 10:19:39;;;;;;;0.30;0.30;;;14.90;87.30;;;;;;5000280;28;20041;-67
2021/12/30 10:22:16;;;;;;;0.30;0.30;;;14.90;86.70;;;;;;5005131;28;20041;-69
2021/12/30 10:24:44;;;;;;;0.20;0.20;;;15.00;86.50;;;;;;5005109;28;20100;-68
2021/12/30 10:27:21;;;;;;;1.40;0.40;;;15.00;86.60;;;;;;5006051;28;20030;-69
2021/12/30 10:29:48;;;;;;;0.82;0.47;;;15.00;86.50;;;;;;5007272;28;20030;-69
2021/12/30 10:32:20;;;;;;;0.20;0.20;;;15.00;86.20;;;;;;5005631;28;20080;-68
2021/12/30 10:35:21;;;;;;;0.20;0.20;;;15.00;86.20;;;;;;5005607;28;20057;-69
2021/12/30 10:38:00;;;;;;;0.30;0.30;;;15.10;85.70;;;;;;4960036;28;20027;-69
2021/12/30 10:40:31;;;;;;;0.40;0.40;;;15.10;86.10;;;;;;5000123;28;20041;-69
2021/12/30 10:43:20;;;;;;;0.80;0.63;;;15.10;86.00;;;;;;5006023;28;20030;-69
2021/12/30 10:46:19;;;;;;;0.65;0.65;;;15.10;85.80;;;;;;5005819;28;20340;-69
2021/12/30 10:48:51;;;;;;;0.30;0.30;;;15.10;85.90;;;;;;5005983;28;20037;-68
2021/12/30 10:51:18;;;;;;;0.50;0.50;;;15.20;85.90;;;;;;5004293;28;20555;-68
2021/12/30 10:53:44;;;;;;;0.20;0.20;;;15.20;85.90;;;;;;5005609;28;20176;-68
2021/12/30 10:56:24;;;;;;;0.90;0.50;;;15.20;86.00;;;;;;5005855;28;20030;-68
2021/12/30 10:58:52;;;;;;;0.20;0.20;;;15.20;85.80;;;;;;5004255;28;20401;-68
2021/12/30 11:01:20;;;;;;;0.85;0.57;;;15.20;85.90;;;;;;5005581;28;20372;-69
2021/12/30 11:03:58;;;;;;;0.30;0.30;;;15.30;85.90;;;;;;5004531;28;20153;-68
2021/12/30 11:06:24;;;;;;;0.40;0.20;;;15.30;85.30;;;;;;5005777;28;20525;-69
2021/12/30 11:09:09;;;;;;;0.45;0.25;;;15.30;85.50;;;;;;5004005;28;20038;-68
2021/12/30 11:11:35;;;;;;;0.50;0.30;;;15.30;85.00;;;;;;5001957;28;20031;-69
2021/12/30 11:14:13;;;;;;;1.48;0.90;;;15.30;85.30;;;;;;5005513;28;20269;-69
2021/12/30 11:17:21;;;;;;;1.58;0.40;;;15.30;85.00;;;;;;5005843;28;20029;-69
2021/12/30 11:19:49;;;;;;;0.50;0.35;;;15.40;84.80;;;;;;4976873;28;20058;-69
2021/12/30 11:22:19;;;;;;;0.60;0.60;;;15.40;85.20;;;;;;5005526;28;20082;-68
2021/12/30 11:24:46;;;;;;;0.57;0.22;;;15.40;85.20;;;;;;5021244;28;20092;-68
2021/12/30 11:27:14;;;;;;;1.50;0.38;;;15.40;85.00;;;;;;5006489;28;20041;-68
2021/12/30 11:29:45;;;;;;;1.42;0.55;;;15.50;85.00;;;;;;5005228;28;20405;-69
2021/12/30 11:32:19;;;;;;;0.50;0.50;;;15.50;85.00;;;;;;5006401;28;20033;-69
2021/12/30 11:34:47;;;;;;;1.40;1.30;;;15.50;85.00;;;;;;5004582;28;20524;-68
2021/12/30 11:37:14;;;;;;;1.20;1.10;;;15.50;85.10;;;;;;5005467;28;20117;-69
2021/12/30 11:39:45;;;;;;;1.02;0.80;;;15.60;85.10;;;;;;5007745;28;20029;-68
2021/12/30 11:42:26;;;;;;;0.40;0.40;;;15.60;85.10;;;;;;5010114;28;20089;-69
2021/12/30 11:44:54;;;;;;;0.50;0.50;;;15.70;84.60;;;;;;5009949;28;20042;-68
2021/12/30 11:47:32;;;;;;;1.58;1.48;;;15.70;84.60;;;;;;5009665;28;20030;-68
2021/12/30 11:50:29;;;;;;;0.75;0.75;;;15.80;84.30;;;;;;5004191;28;20438;-69
2021/12/30 11:53:11;;;;;;;0.30;0.30;;;15.80;84.00;;;;;;5007539;28;20030;-68
2021/12/30 11:55:52;;;;;;;0.40;0.20;;;15.80;84.20;;;;;;5010202;28;20636;-69
2021/12/30 11:58:40;;;;;;;0.10;0.10;;;15.90;84.00;;;;;;5008146;28;20038;-68
2021/12/30 12:01:29;;;;;;;0.20;0.10;;;15.90;83.50;;;;;;5009661;28;20148;-68
2021/12/30 12:04:05;;;;;;;0.40;0.20;;;16.00;83.40;;;;;;5009271;28;20446;-68
2021/12/30 12:06:45;;;;;;;0.32;0.30;;;16.00;83.10;;;;;;5009022;28;20528;-68
2021/12/30 12:09:20;;;;;;;0.28;0.15;;;16.00;82.80;;;;;;5007522;28;20029;-69
2021/12/30 12:11:53;;;;;;;0.22;0.22;;;16.00;83.10;;;;;;5002436;28;20560;-69
2021/12/30 12:14:23;;;;;;;0.20;0.20;;;16.00;83.30;;;;;;5005119;28;20076;-69
2021/12/30 12:16:56;;;;;;;0.25;0.25;;;16.00;83.30;;;;;;5009099;28;20034;-68
2021/12/30 12:19:46;;;;;;;0.40;0.40;;;15.90;83.30;;;;;;5005666;28;20093;-67
2021/12/30 12:22:28;;;;;;;1.27;0.30;;;15.90;83.10;;;;;;5006578;28;20128;-68
2021/12/30 12:25:15;;;;;;;0.57;0.20;;;15.90;82.90;;;;;;5009154;28;20034;-68
2021/12/30 12:27:52;;;;;;;0.40;0.30;;;15.90;82.90;;;;;;5008070;28;20084;-69
2021/12/30 12:30:30;;;;;;;0.20;0.20;;;15.90;83.10;;;;;;5009188;28;20038;-69
2021/12/30 12:32:57;;;;;;;0.17;0.17;;;15.90;83.10;;;;;;5006347;28;20116;-68
2021/12/30 12:35:27;;;;;;;0.30;0.30;;;15.90;83.40;;;;;;5001996;28;20038;-68
2021/12/30 12:38:02;;;;;;;0.35;0.20;;;15.90;83.30;;;;;;5008249;28;20120;-68
2021/12/30 12:40:36;;;;;;;0.40;0.20;;;15.90;83.30;;;;;;5007720;28;20030;-68
2021/12/30 12:43:08;;;;;;;0.30;0.20;;;15.90;83.20;;;;;;5008573;28;20117;-68
2021/12/30 12:45:53;;;;;;;0.60;0.30;;;15.90;83.40;;;;;;5006442;28;20034;-69
2021/12/30 12:48:21;;;;;;;0.15;0.15;;;15.90;83.20;;;;;;5006186;28;20072;-69
2021/12/30 12:50:57;;;;;;;0.15;0.15;;;15.90;83.40;;;;;;5005469;28;20053;-68
2021/12/30 12:53:28;;;;;;;1.00;0.20;;;15.90;83.40;;;;;;5004410;28;20026;-68
2021/12/30 12:55:56;;;;;;;0.30;0.30;;;15.80;83.30;;;;;;5008596;28;20038;-69